createdAt,value
2023-04-21T00:01:01.152Z,12.00
2023-04-21T00:03:33.007Z,11.94
2023-04-21T00:06:03.304Z,11.86
2023-04-21T00:08:33.871Z,11.90
2023-04-21T00:11:03.910Z,11.83
2023-04-21T00:13:33.716Z,11.72
2023-04-21T00:16:04.546Z,11.66
2023-04-21T00:18:34.787Z,11.65
2023-04-21T00:21:05.129Z,11.66
2023-04-21T00:23:35.156Z,11.59
2023-04-21T00:26:05.185Z,11.56
2023-04-21T00:28:35.668Z,11.47
2023-04-21T00:31:07.033Z,11.66
2023-04-21T00:33:37.197Z,11.55
2023-04-21T00:36:07.448Z,11.47
2023-04-21T00:38:37.700Z,11.45
2023-04-21T00:41:07.708Z,11.45
2023-04-21T00:44:10.365Z,11.43
2023-04-21T00:46:40.623Z,11.34
2023-04-21T00:49:11.014Z,11.29
2023-04-21T00:51:43.093Z,11.28
2023-04-21T00:54:15.279Z,11.24
2023-04-21T00:56:45.638Z,11.15
2023-04-21T00:59:15.735Z,11.16
2023-04-21T01:01:45.697Z,11.15
2023-04-21T01:04:15.612Z,11.10
2023-04-21T01:06:45.601Z,11.12
2023-04-21T01:09:15.601Z,11.11
2023-04-21T01:12:09.895Z,11.05
2023-04-21T01:14:42.133Z,10.95
2023-04-21T01:17:13.399Z,10.94
2023-04-21T01:19:44.857Z,10.97
2023-04-21T01:22:16.438Z,10.94
2023-04-21T01:24:49.175Z,10.84
2023-04-21T01:27:21.084Z,10.83
2023-04-21T01:29:53.257Z,10.81
2023-04-21T01:32:27.755Z,10.83
2023-04-21T01:35:00.713Z,10.78
2023-04-21T01:37:34.569Z,10.73
2023-04-21T01:40:08.291Z,10.70
2023-04-21T01:42:42.471Z,10.68
2023-04-21T01:45:13.386Z,10.63
2023-04-21T01:47:44.536Z,10.57
2023-04-21T01:50:16.083Z,10.53
2023-04-21T01:52:46.249Z,10.47
2023-04-21T01:55:17.920Z,10.50
2023-04-21T01:57:48.127Z,10.46
2023-04-21T02:00:18.561Z,10.42
2023-04-21T02:02:50.563Z,10.40
2023-04-21T02:05:20.983Z,10.39
2023-04-21T02:07:50.999Z,10.35
2023-04-21T02:10:21.415Z,10.33
2023-04-21T02:12:51.682Z,10.28
2023-04-21T02:15:21.809Z,10.25
2023-04-21T02:17:51.855Z,10.25
2023-04-21T02:20:21.989Z,10.19
2023-04-21T02:22:52.165Z,10.28
2023-04-21T02:25:23.088Z,10.23
2023-04-21T02:27:53.053Z,10.20
2023-04-21T02:30:22.941Z,10.20
2023-04-21T02:32:54.366Z,10.15
2023-04-21T02:35:24.627Z,10.10
2023-04-21T02:37:54.773Z,10.09
2023-04-21T02:40:25.876Z,10.06
2023-04-21T02:42:56.093Z,10.05
2023-04-21T02:45:25.903Z,10.05
2023-04-21T02:47:55.993Z,10.09
2023-04-21T02:50:26.415Z,10.09
2023-04-21T02:52:56.614Z,10.03
2023-04-21T02:55:26.784Z,9.99
2023-04-21T02:57:57.050Z,9.96
2023-04-21T03:00:28.974Z,9.92
2023-04-21T03:03:00.470Z,9.96
2023-04-21T03:05:30.663Z,9.94
2023-04-21T03:08:01.816Z,9.89
2023-04-21T03:10:31.776Z,9.84
2023-04-21T03:13:02.059Z,9.84
2023-04-21T03:15:34.198Z,9.75
2023-04-21T03:18:04.411Z,9.71
2023-04-21T03:20:34.469Z,9.65
2023-04-21T03:23:04.511Z,9.65
2023-04-21T03:25:35.044Z,9.62
2023-04-21T03:28:05.400Z,9.59
2023-04-21T03:30:35.829Z,9.64
2023-04-21T03:33:06.151Z,9.57
2023-04-21T03:35:36.134Z,9.57
2023-04-21T03:38:06.008Z,9.52
2023-04-21T03:40:39.380Z,9.50
2023-04-21T03:43:09.699Z,9.51
2023-04-21T03:45:40.875Z,9.50
2023-04-21T03:48:10.901Z,9.45
2023-04-21T03:50:41.026Z,9.43
2023-04-21T03:53:10.858Z,9.43
2023-04-21T03:55:40.819Z,9.43
2023-04-21T03:58:12.269Z,9.44
2023-04-21T04:00:42.079Z,9.41
2023-04-21T04:03:12.074Z,9.36
2023-04-21T04:05:42.578Z,9.33
2023-04-21T04:08:12.670Z,9.27
2023-04-21T04:10:42.678Z,9.31
2023-04-21T04:13:13.026Z,9.34
2023-04-21T04:15:43.989Z,9.31
2023-04-21T04:18:14.012Z,9.33
2023-04-21T04:20:44.037Z,9.28
2023-04-21T04:23:14.039Z,9.26
2023-04-21T04:25:44.136Z,9.26
2023-04-21T04:28:14.207Z,9.17
2023-04-21T04:30:44.984Z,9.15
2023-04-21T04:33:15.195Z,9.15
2023-04-21T04:35:45.195Z,9.09
2023-04-21T04:38:18.264Z,9.09
2023-04-21T04:40:55.956Z,9.09
2023-04-21T04:43:26.702Z,9.03
2023-04-21T04:45:56.940Z,8.99
2023-04-21T04:48:27.419Z,8.97
2023-04-21T04:50:57.515Z,8.97
2023-04-21T04:53:29.461Z,8.95
2023-04-21T04:56:01.044Z,8.93
2023-04-21T04:58:31.050Z,8.92
2023-04-21T05:01:01.882Z,8.82
2023-04-21T05:03:31.978Z,8.85
2023-04-21T05:06:02.306Z,8.82
2023-04-21T05:08:33.104Z,8.73
2023-04-21T05:11:03.260Z,8.69
2023-04-21T05:13:33.399Z,8.72
2023-04-21T05:16:03.506Z,8.73
2023-04-21T05:18:33.740Z,8.73
2023-04-21T05:21:03.846Z,8.71
2023-04-21T05:23:33.945Z,8.65
2023-04-21T05:26:04.629Z,8.71
2023-04-21T05:28:36.970Z,8.66
2023-04-21T05:31:07.932Z,8.72
2023-04-21T05:33:37.907Z,8.68
2023-04-21T05:36:12.240Z,8.68
2023-04-21T05:38:42.197Z,8.65
2023-04-21T05:41:12.643Z,8.62
2023-04-21T05:43:42.775Z,8.64
2023-04-21T05:46:13.128Z,8.68
2023-04-21T05:48:43.158Z,8.62
2023-04-21T05:51:14.171Z,8.59
2023-04-21T05:53:45.935Z,8.56
2023-04-21T05:56:15.988Z,8.52
2023-04-21T05:58:46.265Z,8.48
2023-04-21T06:01:16.987Z,8.51
2023-04-21T06:03:50.425Z,8.54
2023-04-21T06:06:21.919Z,8.54
2023-04-21T06:08:52.144Z,8.48
2023-04-21T06:11:22.300Z,8.45
2023-04-21T06:13:54.794Z,8.44
2023-04-21T06:16:24.933Z,8.40
2023-04-21T06:18:55.227Z,8.35
2023-04-21T06:21:25.169Z,8.33
2023-04-21T06:23:54.994Z,8.33
2023-04-21T06:26:26.196Z,8.31
2023-04-21T06:28:55.982Z,8.13
2023-04-21T06:31:26.217Z,8.18
2023-04-21T06:33:56.247Z,8.13
2023-04-21T06:36:26.245Z,8.07
2023-04-21T06:38:56.077Z,8.10
2023-04-21T06:41:26.340Z,8.13
2023-04-21T06:43:56.342Z,8.08
2023-04-21T06:46:27.351Z,8.06
2023-04-21T06:48:57.525Z,8.06
2023-04-21T06:51:27.481Z,8.10
2023-04-21T06:53:57.499Z,8.00
2023-04-21T06:56:29.319Z,7.90
2023-04-21T06:58:59.309Z,7.91
2023-04-21T07:01:29.550Z,7.91
2023-04-21T07:03:59.780Z,7.83
2023-04-21T07:06:29.994Z,7.86
2023-04-21T07:09:00.115Z,7.87
2023-04-21T07:11:30.190Z,7.79
2023-04-21T07:14:03.605Z,7.69
2023-04-21T07:16:33.616Z,7.66
2023-04-21T07:19:03.833Z,7.72
2023-04-21T07:21:38.195Z,7.76
2023-04-21T07:24:08.728Z,7.72
2023-04-21T07:26:38.769Z,7.72
2023-04-21T07:29:08.553Z,7.76
2023-04-21T07:31:38.439Z,7.76
2023-04-21T07:34:08.338Z,7.75
2023-04-21T07:36:39.294Z,7.77
2023-04-21T07:39:09.444Z,7.77
2023-04-21T07:41:39.463Z,7.75
2023-04-21T07:44:09.424Z,7.75
2023-04-21T07:46:41.417Z,7.70
2023-04-21T07:49:12.486Z,7.73
2023-04-21T07:51:42.627Z,7.69
2023-04-21T07:54:12.657Z,7.61
2023-04-21T07:56:42.627Z,7.65
2023-04-21T07:59:12.843Z,7.56
2023-04-21T08:01:42.698Z,7.52
2023-04-21T08:04:12.631Z,7.51
2023-04-21T08:06:44.324Z,7.54
2023-04-21T08:09:14.395Z,7.59
2023-04-21T08:11:44.685Z,7.55
2023-04-21T08:14:15.177Z,7.58
2023-04-21T08:16:45.740Z,7.52
2023-04-21T08:19:15.843Z,7.54
2023-04-21T08:21:45.826Z,7.49
2023-04-21T08:24:15.954Z,7.45
2023-04-21T08:26:46.258Z,7.35
2023-04-21T08:29:16.514Z,7.39
2023-04-21T08:31:46.575Z,7.32
2023-04-21T08:34:16.874Z,7.31
2023-04-21T08:36:48.655Z,7.31
2023-04-21T08:39:19.239Z,7.31
2023-04-21T08:41:49.994Z,7.32
2023-04-21T08:44:20.713Z,7.29
2023-04-21T08:46:52.528Z,7.22
2023-04-21T08:49:23.302Z,7.21
2023-04-21T08:51:53.424Z,7.08
2023-04-21T08:54:23.808Z,7.18
2023-04-21T08:56:58.872Z,7.18
2023-04-21T08:59:36.376Z,7.15
2023-04-21T09:02:13.726Z,7.24
2023-04-21T09:04:46.505Z,7.11
2023-04-21T09:07:40.319Z,7.04
2023-04-21T09:10:12.331Z,7.04
2023-04-21T09:12:42.385Z,7.00
2023-04-21T09:15:13.733Z,6.97
2023-04-21T09:17:47.686Z,7.00
2023-04-21T09:20:21.922Z,7.03
2023-04-21T09:22:53.252Z,7.08
2023-04-21T09:25:24.522Z,7.14
2023-04-21T09:27:57.247Z,7.07
2023-04-21T09:30:27.557Z,7.05
2023-04-21T09:33:00.649Z,7.09
2023-04-21T09:35:31.917Z,7.08
2023-04-21T09:38:03.575Z,7.07
2023-04-21T09:40:33.835Z,7.03
2023-04-21T09:43:03.809Z,7.04
2023-04-21T09:45:40.228Z,7.00
2023-04-21T09:48:13.906Z,7.01
2023-04-21T09:51:17.345Z,7.04
2023-04-21T09:53:40.446Z,7.01
2023-04-21T09:56:14.518Z,6.98
2023-04-21T09:58:55.797Z,7.00
2023-04-21T10:01:31.197Z,7.05
2023-04-21T10:04:01.963Z,7.08
2023-04-21T10:06:33.171Z,7.05
2023-04-21T10:09:05.981Z,7.08
2023-04-21T10:11:36.404Z,7.03
2023-04-21T10:14:07.028Z,7.09
2023-04-21T10:16:40.450Z,7.15
2023-04-21T10:19:28.148Z,7.26
2023-04-21T10:22:01.505Z,7.25
2023-04-21T10:24:32.345Z,7.25
2023-04-21T10:27:03.390Z,7.29
2023-04-21T10:32:09.461Z,7.54
2023-04-21T10:34:41.172Z,7.80
2023-04-21T10:37:13.957Z,8.17
2023-04-21T10:39:53.475Z,8.51
2023-04-21T10:42:30.924Z,8.87
2023-04-21T10:45:02.674Z,9.10
2023-04-21T10:47:45.989Z,9.33
2023-04-21T10:50:30.643Z,9.57
2023-04-21T10:53:12.416Z,9.71
2023-04-21T10:55:44.469Z,9.92
2023-04-21T10:58:18.043Z,10.22
2023-04-21T11:00:48.317Z,10.47
2023-04-21T11:03:18.378Z,10.61
2023-04-21T11:05:48.857Z,10.75
2023-04-21T11:08:18.864Z,10.88
2023-04-21T11:10:57.131Z,11.15
2023-04-21T11:13:35.538Z,11.55
2023-04-21T11:16:08.552Z,11.67
2023-04-21T11:18:41.007Z,11.89
2023-04-21T11:21:18.386Z,12.01
2023-04-21T11:23:56.722Z,12.30
2023-04-21T11:26:38.998Z,12.49
2023-04-21T11:29:11.810Z,12.69
2023-04-21T11:31:45.162Z,12.96
2023-04-21T11:34:18.522Z,12.81
2023-04-21T11:36:49.860Z,13.03
2023-04-21T11:39:23.228Z,13.31
2023-04-21T11:41:54.141Z,13.85
2023-04-21T11:44:34.711Z,14.39
2023-04-21T11:47:22.003Z,14.49
2023-04-21T11:50:00.205Z,14.84
2023-04-21T11:52:34.570Z,15.21
2023-04-21T11:55:13.132Z,15.15
2023-04-21T11:57:44.120Z,15.12
2023-04-21T12:00:17.916Z,15.41
2023-04-21T12:02:57.411Z,15.53
2023-04-21T12:05:36.024Z,15.70
2023-04-21T12:08:07.550Z,15.97
2023-04-21T12:10:37.807Z,16.00
2023-04-21T12:13:08.085Z,16.13
2023-04-21T12:15:38.117Z,16.31
2023-04-21T12:18:15.123Z,16.55
2023-04-21T12:20:54.843Z,16.93
2023-04-21T12:23:25.043Z,17.55
2023-04-21T12:25:55.037Z,18.08
2023-04-21T12:28:25.089Z,18.64
2023-04-21T12:30:55.218Z,18.81
2023-04-21T12:33:25.328Z,18.59
2023-04-21T12:35:55.400Z,18.46
2023-04-21T12:38:25.301Z,18.70
2023-04-21T12:40:55.577Z,18.36
2023-04-21T12:43:26.612Z,18.87
2023-04-21T12:45:58.555Z,18.61
2023-04-21T12:48:28.640Z,18.38
2023-04-21T12:50:58.748Z,19.06
2023-04-21T12:53:30.576Z,18.68
2023-04-21T12:56:04.732Z,18.47
2023-04-21T12:58:35.559Z,18.47
2023-04-21T13:01:05.834Z,18.60
2023-04-21T13:03:36.184Z,18.74
2023-04-21T13:06:06.584Z,18.86
2023-04-21T13:08:39.038Z,18.91
2023-04-21T13:11:09.194Z,18.94
2023-04-21T13:13:41.041Z,19.19
2023-04-21T13:16:11.188Z,19.63
2023-04-21T13:18:41.220Z,19.75
2023-04-21T13:21:11.267Z,20.16
2023-04-21T13:23:41.644Z,20.01
2023-04-21T13:26:11.641Z,19.85
2023-04-21T13:28:41.850Z,20.17
2023-04-21T13:31:12.028Z,20.69
2023-04-21T13:33:42.381Z,20.68
2023-04-21T13:36:13.492Z,20.45
2023-04-21T13:38:44.168Z,20.57
2023-04-21T13:41:14.194Z,20.43
2023-04-21T13:43:44.617Z,20.69
2023-04-21T13:46:15.782Z,20.79
2023-04-21T13:48:47.413Z,21.13
2023-04-21T13:51:17.399Z,21.19
2023-04-21T13:53:47.247Z,21.67
2023-04-21T13:56:18.488Z,22.15
2023-04-21T13:58:48.671Z,22.36
2023-04-21T14:01:21.238Z,22.48
2023-04-21T14:03:52.001Z,22.45
2023-04-21T14:06:22.384Z,21.97
2023-04-21T14:08:52.309Z,22.09
2023-04-21T14:11:22.556Z,22.49
2023-04-21T14:16:29.842Z,23.22
2023-04-21T14:19:00.126Z,23.65
2023-04-21T14:21:30.162Z,23.37
2023-04-21T14:24:00.374Z,23.01
2023-04-21T14:26:30.236Z,22.84
2023-04-21T14:29:01.800Z,22.79
2023-04-21T14:31:32.060Z,22.96
2023-04-21T14:34:02.753Z,22.94
2023-04-21T14:36:33.104Z,23.17
2023-04-21T14:39:03.013Z,23.14
2023-04-21T14:41:32.892Z,24.02
2023-04-21T14:44:04.451Z,24.74
2023-04-21T14:46:34.552Z,24.81
2023-04-21T14:49:06.989Z,24.50
2023-04-21T14:51:39.232Z,24.12
2023-04-21T14:54:10.434Z,24.03
2023-04-21T14:56:40.423Z,23.59
2023-04-21T14:59:11.870Z,23.99
2023-04-21T15:01:42.172Z,24.31
2023-04-21T15:04:12.404Z,24.39
2023-04-21T15:06:42.853Z,24.36
2023-04-21T15:09:12.933Z,25.11
2023-04-21T15:11:43.940Z,24.89
2023-04-21T15:14:14.241Z,25.29
2023-04-21T15:16:44.231Z,25.39
2023-04-21T15:19:14.729Z,25.98
2023-04-21T15:21:44.794Z,26.07
2023-04-21T15:24:14.836Z,26.58
2023-04-21T15:26:45.039Z,25.84
2023-04-21T15:29:15.159Z,25.84
2023-04-21T15:31:45.155Z,26.53
2023-04-21T15:34:15.136Z,26.37
2023-04-21T15:36:44.924Z,25.90
2023-04-21T15:39:15.259Z,25.76
2023-04-21T15:41:45.366Z,26.93
2023-04-21T15:44:15.466Z,26.41
2023-04-21T15:46:45.536Z,26.21
2023-04-21T15:49:15.699Z,27.24
2023-04-21T15:51:45.740Z,27.67
2023-04-21T15:54:15.893Z,27.48
2023-04-21T15:56:45.947Z,27.41
2023-04-21T15:59:16.113Z,27.00
2023-04-21T16:01:46.201Z,27.68
2023-04-21T16:04:17.203Z,27.88
2023-04-21T16:06:47.685Z,27.36
2023-04-21T16:09:18.506Z,27.29
2023-04-21T16:11:51.271Z,28.16
2023-04-21T16:14:21.495Z,27.81
2023-04-21T16:16:51.801Z,27.84
2023-04-21T16:19:21.865Z,27.94
2023-04-21T16:21:53.693Z,28.17
2023-04-21T16:24:24.089Z,28.73
2023-04-21T16:26:54.214Z,28.90
2023-04-21T16:29:24.273Z,28.93
2023-04-21T16:31:54.315Z,29.53
2023-04-21T16:34:24.330Z,29.49
2023-04-21T16:36:54.269Z,28.43
2023-04-21T16:39:24.236Z,27.69
2023-04-21T16:41:54.330Z,27.94
2023-04-21T16:44:24.536Z,27.99
2023-04-21T16:46:54.738Z,28.13
2023-04-21T16:49:25.664Z,28.88
2023-04-21T16:51:56.024Z,29.67
2023-04-21T16:54:26.095Z,29.43
2023-04-21T16:56:56.166Z,29.92
2023-04-21T16:59:27.721Z,30.02
2023-04-21T17:01:58.912Z,30.52
2023-04-21T17:04:29.114Z,30.07
2023-04-21T17:06:59.123Z,30.85
2023-04-21T17:09:29.159Z,30.13
2023-04-21T17:11:59.352Z,29.77
2023-04-21T17:14:29.478Z,30.24
2023-04-21T17:16:59.715Z,29.66
2023-04-21T17:19:29.884Z,29.59
2023-04-21T17:21:59.986Z,29.36
2023-04-21T17:24:38.008Z,29.63
2023-04-21T17:27:15.336Z,29.48
2023-04-21T17:29:45.331Z,29.07
2023-04-21T17:32:15.684Z,29.39
2023-04-21T17:34:47.651Z,29.79
2023-04-21T17:37:17.623Z,30.07
2023-04-21T17:39:47.475Z,29.96
2023-04-21T17:42:17.682Z,29.62
2023-04-21T17:44:47.946Z,29.83
2023-04-21T17:47:18.241Z,29.29
2023-04-21T17:49:48.247Z,28.61
2023-04-21T17:52:18.242Z,28.43
2023-04-21T17:54:48.401Z,29.16
2023-04-21T17:57:18.384Z,29.15
2023-04-21T17:59:48.413Z,29.34
2023-04-21T18:02:18.803Z,29.34
2023-04-21T18:04:49.251Z,29.11
2023-04-21T18:07:19.624Z,29.10
2023-04-21T18:09:52.430Z,29.43
2023-04-21T18:12:25.672Z,28.70
2023-04-21T18:14:55.561Z,29.11
2023-04-21T18:17:25.457Z,29.24
2023-04-21T18:19:55.346Z,28.97
2023-04-21T18:22:25.564Z,28.37
2023-04-21T18:24:55.458Z,28.31
2023-04-21T18:27:26.930Z,28.78
2023-04-21T18:29:57.263Z,28.32
2023-04-21T18:32:27.433Z,27.82
2023-04-21T18:34:58.256Z,27.55
2023-04-21T18:37:28.389Z,27.33
2023-04-21T18:39:59.766Z,27.78
2023-04-21T18:42:30.064Z,27.94
2023-04-21T18:45:02.204Z,28.02
2023-04-21T18:47:35.953Z,27.77
2023-04-21T18:50:05.612Z,27.88
2023-04-21T18:52:35.352Z,27.74
2023-04-21T18:55:06.001Z,27.74
2023-04-21T18:57:36.956Z,27.27
2023-04-21T19:00:08.525Z,27.22
2023-04-21T19:02:39.322Z,27.26
2023-04-21T19:05:10.871Z,27.43
2023-04-21T19:07:40.908Z,27.22
2023-04-21T19:10:11.850Z,27.67
2023-04-21T19:12:42.776Z,27.99
2023-04-21T19:15:13.305Z,27.84
2023-04-21T19:17:43.287Z,27.30
2023-04-21T19:20:13.978Z,27.16
2023-04-21T19:22:44.553Z,27.03
2023-04-21T19:25:15.578Z,27.00
2023-04-21T19:27:47.403Z,26.92
2023-04-21T19:30:17.571Z,26.95
2023-04-21T19:32:47.771Z,26.97
2023-04-21T19:35:17.877Z,26.76
2023-04-21T19:37:48.396Z,26.71
2023-04-21T19:40:18.426Z,26.60
2023-04-21T19:42:48.453Z,26.51
2023-04-21T19:45:18.728Z,26.41
2023-04-21T19:47:48.863Z,26.20
2023-04-21T19:50:19.244Z,26.13
2023-04-21T19:52:49.236Z,26.35
2023-04-21T19:55:19.332Z,25.90
2023-04-21T19:57:49.330Z,25.73
2023-04-21T20:00:19.626Z,25.59
2023-04-21T20:02:49.718Z,25.38
2023-04-21T20:05:19.886Z,25.23
2023-04-21T20:07:50.105Z,24.91
2023-04-21T20:10:20.101Z,24.80
2023-04-21T20:12:49.907Z,24.50
2023-04-21T20:15:20.099Z,24.29
2023-04-21T20:17:50.258Z,24.21
2023-04-21T20:20:20.282Z,23.90
2023-04-21T20:22:50.302Z,23.63
2023-04-21T20:25:20.358Z,23.37
2023-04-21T20:27:50.378Z,23.01
2023-04-21T20:30:20.660Z,22.82
2023-04-21T20:32:50.724Z,22.62
2023-04-21T20:35:20.722Z,22.33
2023-04-21T20:37:51.463Z,22.04
2023-04-21T20:40:23.665Z,21.63
2023-04-21T20:42:53.651Z,21.27
2023-04-21T20:45:23.583Z,21.05
2023-04-21T20:47:53.636Z,20.86
2023-04-21T20:50:24.589Z,20.58
2023-04-21T20:52:54.647Z,20.33
2023-04-21T20:55:24.487Z,20.07
2023-04-21T20:57:54.505Z,19.82
2023-04-21T21:00:24.566Z,19.70
2023-04-21T21:02:54.777Z,19.48
2023-04-21T21:05:25.062Z,19.34
2023-04-21T21:07:55.278Z,19.14
2023-04-21T21:10:25.340Z,18.97
2023-04-21T21:12:55.399Z,18.88
2023-04-21T21:15:25.442Z,18.74
2023-04-21T21:17:55.609Z,18.63
2023-04-21T21:20:25.672Z,18.45
2023-04-21T21:22:56.295Z,18.24
2023-04-21T21:25:26.280Z,18.15
2023-04-21T21:27:56.858Z,18.01
2023-04-21T21:30:26.852Z,17.87
2023-04-21T21:32:57.150Z,17.78
2023-04-21T21:35:27.246Z,17.75
2023-04-21T21:37:57.345Z,17.70
2023-04-21T21:40:28.146Z,17.53
2023-04-21T21:42:58.134Z,17.40
2023-04-21T21:45:28.343Z,17.29
2023-04-21T21:47:59.401Z,17.19
2023-04-21T21:50:29.455Z,17.10
2023-04-21T21:52:59.455Z,16.96
2023-04-21T21:55:29.860Z,16.89
2023-04-21T21:58:04.391Z,16.83
2023-04-21T22:00:35.202Z,16.69
2023-04-21T22:03:06.793Z,16.65
2023-04-21T22:05:36.904Z,16.54
2023-04-21T22:08:06.905Z,16.38
2023-04-21T22:10:37.136Z,16.16
2023-04-21T22:13:07.184Z,16.10
2023-04-21T22:15:37.372Z,16.00
2023-04-21T22:18:09.002Z,15.91
2023-04-21T22:20:39.632Z,15.87
2023-04-21T22:23:09.803Z,15.83
2023-04-21T22:25:39.885Z,15.76
2023-04-21T22:28:09.949Z,15.66
2023-04-21T22:30:40.151Z,15.62
2023-04-21T22:33:10.262Z,15.48
2023-04-21T22:35:40.347Z,15.36
2023-04-21T22:38:11.811Z,15.32
2023-04-21T22:40:42.038Z,15.34
2023-04-21T22:43:12.392Z,15.25
2023-04-21T22:45:44.059Z,15.24
2023-04-21T22:48:15.330Z,15.15
2023-04-21T22:50:45.298Z,15.04
2023-04-21T22:53:15.523Z,14.90
2023-04-21T22:55:45.404Z,14.74
2023-04-21T22:58:15.759Z,14.81
2023-04-21T23:00:46.573Z,14.79
2023-04-21T23:03:16.999Z,14.70
2023-04-21T23:05:47.268Z,14.74
2023-04-21T23:08:17.281Z,14.74
2023-04-21T23:10:48.578Z,14.74
2023-04-21T23:13:18.820Z,14.76
2023-04-21T23:15:48.624Z,14.71
2023-04-21T23:18:18.696Z,14.64
2023-04-21T23:20:48.940Z,14.69
2023-04-21T23:23:19.039Z,14.71
2023-04-21T23:25:48.984Z,14.59
2023-04-21T23:28:19.206Z,14.57
2023-04-21T23:30:49.331Z,14.47
2023-04-21T23:33:19.453Z,14.40
2023-04-21T23:35:49.626Z,14.42
2023-04-21T23:38:19.538Z,14.40
2023-04-21T23:40:49.357Z,14.30
2023-04-21T23:43:20.934Z,14.26
2023-04-21T23:45:52.054Z,14.26
2023-04-21T23:48:22.265Z,14.22
2023-04-21T23:50:52.319Z,14.19
2023-04-21T23:53:22.500Z,14.18
2023-04-21T23:55:52.719Z,14.16
2023-04-21T23:58:22.591Z,14.11
